Time;durP1;ratioP1;P1;durP2;ratioP2;P2;SDS_P1;SDS_P2;PMS_P1;PMS_P2;Temp;Humidity;BMP_temperature;BMP_pressure;BME280_temperature;BME280_humidity;BME280_pressure;Samples;Min_cycle;Max_cycle;Signal;HPM_P1;HPM_P2
2022/10/07 00:00:46;;;;;;;7.00;4.03;;;;;;;;;;4334168;33;20289;-88
2022/10/07 00:03:13;;;;;;;5.87;3.57;;;;;;;;;;4334110;33;20231;-88
2022/10/07 00:05:40;;;;;;;7.17;4.40;;;;;;;;;;4334308;33;20215;-88
2022/10/07 00:08:07;;;;;;;10.33;4.10;;;;;;;;;;4334121;33;20231;-88
2022/10/07 00:10:39;;;;;;;6.80;4.13;;;;;;;;;;4334334;33;20217;-88
2022/10/07 00:13:06;;;;;;;7.47;3.87;;;;;;;;;;4334383;33;20230;-88
2022/10/07 00:15:33;;;;;;;6.20;3.30;;;;;;;;;;4334222;33;20628;-88
2022/10/07 00:18:00;;;;;;;8.23;3.17;;;;;;;;;;4334228;33;20222;-87
2022/10/07 00:20:26;;;;;;;9.10;3.03;;;;;;;;;;4333743;33;20256;-88
2022/10/07 00:22:53;;;;;;;11.13;2.70;;;;;;;;;;4334084;33;20282;-87
2022/10/07 00:25:20;;;;;;;8.10;2.83;;;;;;;;;;4334140;33;20235;-88
2022/10/07 00:27:50;;;;;;;5.10;2.93;;;;;;;;;;4333973;33;20211;-88
2022/10/07 00:30:17;;;;;;;4.27;2.80;;;;;;;;;;4333594;33;20211;-88
2022/10/07 00:32:44;;;;;;;5.13;2.60;;;;;;;;;;4334109;33;20207;-88
2022/10/07 00:35:11;;;;;;;5.03;2.80;;;;;;;;;;4334043;33;20646;-88
2022/10/07 00:37:41;;;;;;;3.93;2.30;;;;;;;;;;4334011;33;20625;-88
2022/10/07 00:40:11;;;;;;;7.30;2.50;;;;;;;;;;4334016;33;20204;-88
2022/10/07 00:42:39;;;;;;;2.80;2.53;;;;;;;;;;4334068;33;20621;-88
2022/10/07 00:45:14;;;;;;;5.73;2.70;;;;;;;;;;4334035;33;20231;-88
2022/10/07 00:47:43;;;;;;;7.83;2.97;;;;;;;;;;4334035;33;20257;-88
2022/10/07 00:50:14;;;;;;;8.33;2.67;;;;;;;;;;4333787;33;20219;-88
2022/10/07 00:52:45;;;;;;;3.87;2.03;;;;;;;;;;4334033;33;20203;-88
2022/10/07 00:55:16;;;;;;;9.07;2.03;;;;;;;;;;4333775;33;20290;-87
2022/10/07 00:57:44;;;;;;;4.27;2.10;;;;;;;;;;4333768;33;20203;-88
2022/10/07 01:00:13;;;;;;;4.67;2.13;;;;;;;;;;4333357;33;20730;-88
2022/10/07 01:02:40;;;;;;;8.27;2.00;;;;;;;;;;4333756;33;20254;-88
2022/10/07 01:05:09;;;;;;;6.53;2.47;;;;;;;;;;4333517;33;20225;-88
2022/10/07 01:07:38;;;;;;;3.90;2.30;;;;;;;;;;4333874;33;20265;-87
2022/10/07 01:10:06;;;;;;;6.00;3.10;;;;;;;;;;4332988;33;20219;-87
2022/10/07 01:12:48;;;;;;;5.43;3.87;;;;;;;;;;4333135;33;20577;-87
2022/10/07 01:15:23;;;;;;;5.67;3.70;;;;;;;;;;4333489;33;20289;-87
2022/10/07 01:17:53;;;;;;;9.33;3.53;;;;;;;;;;4333379;33;20225;-87
2022/10/07 01:20:31;;;;;;;5.97;2.83;;;;;;;;;;4333497;33;20285;-87
2022/10/07 01:23:28;;;;;;;5.67;2.83;;;;;;;;;;4333519;33;20207;-87
2022/10/07 01:26:15;;;;;;;6.77;3.67;;;;;;;;;;4333518;33;20566;-87
2022/10/07 01:28:46;;;;;;;8.27;3.20;;;;;;;;;;4333369;33;20382;-87
2022/10/07 01:31:17;;;;;;;4.83;3.10;;;;;;;;;;4333442;33;20552;-88
2022/10/07 01:33:46;;;;;;;11.20;3.20;;;;;;;;;;4332934;33;20223;-87
2022/10/07 01:36:16;;;;;;;4.47;2.30;;;;;;;;;;4332666;33;20670;-87
2022/10/07 01:38:49;;;;;;;10.87;2.30;;;;;;;;;;4332927;33;20227;-87
2022/10/07 01:41:18;;;;;;;6.00;2.50;;;;;;;;;;4333238;33;20643;-87
2022/10/07 01:43:48;;;;;;;3.33;2.03;;;;;;;;;;4332445;33;20281;-87
2022/10/07 01:46:20;;;;;;;3.83;2.53;;;;;;;;;;4333057;33;20552;-87
2022/10/07 01:48:47;;;;;;;3.83;2.30;;;;;;;;;;4332833;33;20222;-87
2022/10/07 01:51:14;;;;;;;3.00;2.20;;;;;;;;;;4332988;33;20261;-87
2022/10/07 01:53:50;;;;;;;3.13;2.10;;;;;;;;;;4332692;33;20281;-87
2022/10/07 01:56:36;;;;;;;3.37;2.30;;;;;;;;;;4333054;33;20214;-87
2022/10/07 01:59:20;;;;;;;9.00;2.77;;;;;;;;;;4332901;33;20312;-87
2022/10/07 02:01:54;;;;;;;4.70;2.10;;;;;;;;;;4332419;33;20660;-87
2022/10/07 02:04:38;;;;;;;9.17;2.13;;;;;;;;;;4332967;33;20273;-87
2022/10/07 02:07:16;;;;;;;5.67;2.20;;;;;;;;;;4332811;33;20249;-88
2022/10/07 02:09:49;;;;;;;5.87;2.17;;;;;;;;;;4332516;33;20228;-87
2022/10/07 02:12:21;;;;;;;4.00;1.93;;;;;;;;;;4332878;33;20219;-87
2022/10/07 02:14:56;;;;;;;4.57;2.50;;;;;;;;;;4332373;33;20289;-87
2022/10/07 02:17:25;;;;;;;3.87;2.23;;;;;;;;;;4332776;33;20624;-87
2022/10/07 02:19:55;;;;;;;4.93;2.00;;;;;;;;;;4332901;33;20309;-87
2022/10/07 02:22:27;;;;;;;4.67;2.23;;;;;;;;;;4332110;33;20281;-87
2022/10/07 02:24:57;;;;;;;6.13;2.53;;;;;;;;;;4331940;33;20269;-87
2022/10/07 02:27:27;;;;;;;5.53;3.00;;;;;;;;;;4332709;33;20269;-87
2022/10/07 02:30:01;;;;;;;4.10;2.70;;;;;;;;;;4331962;33;20676;-87
2022/10/07 02:32:30;;;;;;;5.97;2.87;;;;;;;;;;4332662;33;20625;-87
2022/10/07 02:35:02;;;;;;;5.97;2.97;;;;;;;;;;4331993;33;20219;-86
2022/10/07 02:37:35;;;;;;;7.83;4.03;;;;;;;;;;4332661;33;20245;-87
2022/10/07 02:40:03;;;;;;;11.47;4.47;;;;;;;;;;4332100;33;20237;-88
2022/10/07 02:42:35;;;;;;;5.23;3.23;;;;;;;;;;4332744;33;20203;-87
2022/10/07 02:45:12;;;;;;;4.83;3.27;;;;;;;;;;4332919;33;20239;-88
2022/10/07 02:47:43;;;;;;;9.97;3.67;;;;;;;;;;4332648;33;20621;-87
2022/10/07 02:50:14;;;;;;;6.47;3.27;;;;;;;;;;4332117;33;20241;-87
2022/10/07 02:52:43;;;;;;;16.20;3.67;;;;;;;;;;4332796;33;20569;-87
2022/10/07 02:55:14;;;;;;;9.90;3.73;;;;;;;;;;4332447;33;20287;-88
2022/10/07 02:57:46;;;;;;;6.47;4.17;;;;;;;;;;4332343;33;20211;-88
2022/10/07 03:00:15;;;;;;;9.03;3.83;;;;;;;;;;4332487;33;20356;-88
2022/10/07 03:02:47;;;;;;;6.70;3.90;;;;;;;;;;4332314;33;20207;-88
2022/10/07 03:05:18;;;;;;;10.03;4.27;;;;;;;;;;4332529;33;20258;-87
2022/10/07 03:07:45;;;;;;;6.00;3.57;;;;;;;;;;4332461;33;20234;-88
2022/10/07 03:10:13;;;;;;;12.17;8.57;;;;;;;;;;4332499;33;20307;-88
2022/10/07 03:12:40;;;;;;;4.97;3.13;;;;;;;;;;4332497;33;20203;-87
2022/10/07 03:15:09;;;;;;;5.60;3.53;;;;;;;;;;4332324;33;20279;-87
2022/10/07 03:17:38;;;;;;;5.97;3.90;;;;;;;;;;4331803;33;20707;-87
2022/10/07 03:20:05;;;;;;;6.03;3.37;;;;;;;;;;4332844;33;20216;-88
2022/10/07 03:22:32;;;;;;;8.10;3.20;;;;;;;;;;4335087;33;20219;-87
2022/10/07 03:24:59;;;;;;;7.93;4.27;;;;;;;;;;4334331;33;20604;-87
2022/10/07 03:27:27;;;;;;;5.90;3.63;;;;;;;;;;4334971;33;20220;-86
2022/10/07 03:29:57;;;;;;;5.37;3.80;;;;;;;;;;4321187;33;20289;-87
2022/10/07 03:32:24;;;;;;;3.93;2.90;;;;;;;;;;4334444;33;20211;-87
2022/10/07 03:34:53;;;;;;;8.10;3.87;;;;;;;;;;4334316;33;20303;-87
2022/10/07 03:37:21;;;;;;;5.43;3.40;;;;;;;;;;4334816;33;20696;-86
2022/10/07 03:39:48;;;;;;;8.40;3.40;;;;;;;;;;4334319;33;20219;-86
2022/10/07 03:42:15;;;;;;;4.87;3.00;;;;;;;;;;4334700;33;20210;-86
2022/10/07 03:44:42;;;;;;;5.53;3.20;;;;;;;;;;4334786;33;20227;-87
2022/10/07 03:47:09;;;;;;;3.73;2.33;;;;;;;;;;4334717;33;20211;-87
2022/10/07 03:49:36;;;;;;;8.47;2.80;;;;;;;;;;4334412;33;20223;-87
2022/10/07 03:52:05;;;;;;;15.40;4.07;;;;;;;;;;4334601;33;20356;-87
2022/10/07 03:54:33;;;;;;;5.63;2.87;;;;;;;;;;4334152;33;20219;-87
2022/10/07 03:57:00;;;;;;;6.87;2.93;;;;;;;;;;4334764;33;20253;-87
2022/10/07 03:59:27;;;;;;;5.37;2.67;;;;;;;;;;4334751;33;20223;-87
2022/10/07 04:01:53;;;;;;;3.97;2.70;;;;;;;;;;4334083;33;20246;-87
2022/10/07 04:04:20;;;;;;;5.87;2.97;;;;;;;;;;4334087;33;20245;-87
2022/10/07 04:06:47;;;;;;;6.27;3.47;;;;;;;;;;4334416;33;20211;-87
2022/10/07 04:09:15;;;;;;;10.50;3.80;;;;;;;;;;4334478;33;20218;-87
2022/10/07 04:11:42;;;;;;;9.27;3.50;;;;;;;;;;4334481;33;20357;-87
2022/10/07 04:14:09;;;;;;;8.80;4.40;;;;;;;;;;4334142;33;20241;-87
2022/10/07 04:16:37;;;;;;;16.73;5.13;;;;;;;;;;4334360;33;20258;-87
2022/10/07 04:19:06;;;;;;;8.37;5.10;;;;;;;;;;4334039;33;20262;-87
2022/10/07 04:21:32;;;;;;;13.67;6.20;;;;;;;;;;4334549;33;20330;-87
2022/10/07 04:23:59;;;;;;;16.00;6.50;;;;;;;;;;4337162;33;20241;-85
2022/10/07 04:26:27;;;;;;;11.77;5.87;;;;;;;;;;4339037;33;20273;-84
2022/10/07 04:28:54;;;;;;;17.73;7.47;;;;;;;;;;4339619;33;20223;-85
2022/10/07 04:31:21;;;;;;;19.60;8.43;;;;;;;;;;4338592;33;20202;-84
2022/10/07 04:33:48;;;;;;;26.30;8.57;;;;;;;;;;4338747;33;20223;-85
2022/10/07 04:36:15;;;;;;;21.77;9.10;;;;;;;;;;4338144;33;20207;-88
2022/10/07 04:38:43;;;;;;;24.27;8.67;;;;;;;;;;4334526;33;20227;-88
2022/10/07 04:41:10;;;;;;;30.57;11.17;;;;;;;;;;4334455;33;20262;-87
2022/10/07 04:43:38;;;;;;;16.63;9.03;;;;;;;;;;4334162;33;20223;-88
2022/10/07 04:46:06;;;;;;;26.00;10.87;;;;;;;;;;4334110;33;20222;-88
2022/10/07 04:48:34;;;;;;;27.97;12.17;;;;;;;;;;4334108;33;20320;-87
2022/10/07 04:51:02;;;;;;;23.70;12.23;;;;;;;;;;4333910;33;20277;-87
2022/10/07 04:53:30;;;;;;;25.30;12.30;;;;;;;;;;4333894;33;20219;-88
2022/10/07 04:55:58;;;;;;;37.80;11.23;;;;;;;;;;4333739;33;20199;-88
2022/10/07 04:58:26;;;;;;;33.93;14.90;;;;;;;;;;4333813;33;20223;-87
2022/10/07 05:00:55;;;;;;;29.40;10.93;;;;;;;;;;4333449;33;20304;-88
2022/10/07 05:03:24;;;;;;;27.30;12.40;;;;;;;;;;4333192;33;20223;-88
2022/10/07 05:05:52;;;;;;;19.73;11.90;;;;;;;;;;4333172;33;20265;-88
2022/10/07 05:08:21;;;;;;;27.07;11.57;;;;;;;;;;4333320;33;20223;-88
2022/10/07 05:10:48;;;;;;;17.57;9.03;;;;;;;;;;4333635;33;20219;-87
2022/10/07 05:13:16;;;;;;;18.33;7.80;;;;;;;;;;4333238;33;20659;-87
2022/10/07 05:15:50;;;;;;;21.97;7.27;;;;;;;;;;4333316;33;20608;-87
2022/10/07 05:18:22;;;;;;;18.33;8.30;;;;;;;;;;4334190;33;20223;-87
2022/10/07 05:20:49;;;;;;;27.83;8.97;;;;;;;;;;4334909;33;20600;-88
2022/10/07 05:23:18;;;;;;;17.77;7.67;;;;;;;;;;4334230;33;20659;-89
2022/10/07 05:25:45;;;;;;;10.70;5.90;;;;;;;;;;4334056;33;20211;-88
2022/10/07 05:28:13;;;;;;;15.97;7.00;;;;;;;;;;4334097;33;20274;-89
2022/10/07 05:30:43;;;;;;;22.33;7.17;;;;;;;;;;4334692;33;20245;-87
2022/10/07 05:33:10;;;;;;;20.43;7.97;;;;;;;;;;4333776;33;20286;-89
2022/10/07 05:35:38;;;;;;;13.13;7.03;;;;;;;;;;4333337;33;20286;-88
2022/10/07 05:38:05;;;;;;;26.23;7.47;;;;;;;;;;4333323;33;20306;-87
2022/10/07 05:40:32;;;;;;;18.47;7.10;;;;;;;;;;4333685;33;20204;-87
2022/10/07 05:42:59;;;;;;;15.47;6.67;;;;;;;;;;4332868;33;20613;-88
2022/10/07 05:45:25;;;;;;;20.77;8.07;;;;;;;;;;4332144;33;20625;-87
2022/10/07 05:47:52;;;;;;;14.07;7.97;;;;;;;;;;4332779;33;20561;-87
2022/10/07 05:50:19;;;;;;;19.03;7.93;;;;;;;;;;4333290;33;20609;-86
2022/10/07 05:52:50;;;;;;;9.17;6.17;;;;;;;;;;4366769;27;20273;-83
2022/10/07 05:58:40;;;;;;;14.73;6.87;;;;;;;;;;4329778;33;20641;-84
2022/10/07 06:01:13;;;;;;;13.03;7.50;;;;;;;;;;4331918;33;20564;-77
2022/10/07 06:03:41;;;;;;;11.03;7.07;;;;;;;;;;4331745;33;20576;-77
2022/10/07 06:06:08;;;;;;;10.53;7.00;;;;;;;;;;4332575;33;20605;-82
2022/10/07 06:08:39;;;;;;;13.10;7.70;;;;;;;;;;4331334;33;20580;-79
2022/10/07 06:13:52;;;;;;;14.03;9.53;;;;;;;;;;4331322;33;20316;-82
2022/10/07 06:16:20;;;;;;;23.07;8.73;;;;;;;;;;4331760;33;20557;-82
2022/10/07 06:18:49;;;;;;;16.17;7.80;;;;;;;;;;4331327;33;20622;-82
2022/10/07 06:21:16;;;;;;;25.57;9.00;;;;;;;;;;4331435;33;20598;-82
2022/10/07 06:23:51;;;;;;;19.33;8.00;;;;;;;;;;4331342;33;20637;-82
2022/10/07 06:26:18;;;;;;;22.10;8.90;;;;;;;;;;4331333;33;20603;-79
2022/10/07 06:28:46;;;;;;;15.57;6.90;;;;;;;;;;4331359;33;20569;-81
2022/10/07 06:31:16;;;;;;;19.10;6.23;;;;;;;;;;4331224;33;20581;-78
2022/10/07 06:33:43;;;;;;;6.53;4.30;;;;;;;;;;4331342;33;20591;-82
2022/10/07 06:36:13;;;;;;;4.93;3.80;;;;;;;;;;4331381;33;20571;-82
2022/10/07 06:38:46;;;;;;;4.57;2.70;;;;;;;;;;4331152;33;20576;-82
2022/10/07 06:41:14;;;;;;;7.10;2.80;;;;;;;;;;4331354;33;20316;-79
2022/10/07 06:43:42;;;;;;;9.60;3.90;;;;;;;;;;4331888;33;20709;-82
2022/10/07 06:46:14;;;;;;;22.63;9.77;;;;;;;;;;4331213;33;20623;-80
2022/10/07 06:48:43;;;;;;;29.17;14.03;;;;;;;;;;4331332;33;20707;-79
2022/10/07 06:51:14;;;;;;;13.87;5.70;;;;;;;;;;4331235;33;20586;-83
2022/10/07 06:53:42;;;;;;;6.10;3.83;;;;;;;;;;4330912;33;20691;-79
2022/10/07 06:56:13;;;;;;;8.30;3.20;;;;;;;;;;4332897;33;20267;-82
2022/10/07 06:58:42;;;;;;;16.85;6.03;;;;;;;;;;4334269;33;20586;-81
2022/10/07 07:01:10;;;;;;;4.65;2.55;;;;;;;;;;4333816;33;20596;-81
2022/10/07 07:03:37;;;;;;;3.62;2.15;;;;;;;;;;4333977;33;20640;-81
2022/10/07 07:06:06;;;;;;;7.60;1.70;;;;;;;;;;4334556;33;20612;-78
2022/10/07 07:08:34;;;;;;;5.57;1.97;;;;;;;;;;4333786;33;20622;-82
2022/10/07 07:11:05;;;;;;;4.57;2.20;;;;;;;;;;4333873;33;20569;-80
2022/10/07 07:13:34;;;;;;;9.37;2.00;;;;;;;;;;4333972;33;20657;-78
2022/10/07 07:16:03;;;;;;;8.27;1.50;;;;;;;;;;4333707;33;20654;-79
2022/10/07 07:18:30;;;;;;;2.47;1.87;;;;;;;;;;4333807;33;20629;-84
2022/10/07 07:21:06;;;;;;;8.30;1.90;;;;;;;;;;4333620;33;20643;-84
2022/10/07 07:23:33;;;;;;;13.37;2.87;;;;;;;;;;4333854;33;20602;-84
2022/10/07 07:26:01;;;;;;;1.87;1.67;;;;;;;;;;4333912;33;20526;-88
2022/10/07 07:28:30;;;;;;;6.73;2.73;;;;;;;;;;4334036;33;20678;-85
2022/10/07 07:30:59;;;;;;;6.30;2.27;;;;;;;;;;4333836;33;20514;-77
2022/10/07 07:33:27;;;;;;;6.68;1.80;;;;;;;;;;4333580;33;20584;-80
2022/10/07 07:35:56;;;;;;;3.58;2.20;;;;;;;;;;4333721;33;20518;-83
2022/10/07 07:38:23;;;;;;;4.65;2.05;;;;;;;;;;4333465;33;20700;-86
2022/10/07 07:40:52;;;;;;;5.03;1.90;;;;;;;;;;4333551;33;20263;-78
2022/10/07 07:43:19;;;;;;;5.63;1.93;;;;;;;;;;4333819;33;20239;-88
2022/10/07 07:45:47;;;;;;;4.65;2.15;;;;;;;;;;4333418;33;20580;-79
2022/10/07 07:48:15;;;;;;;3.13;1.87;;;;;;;;;;4333542;33;20572;-84
2022/10/07 07:50:43;;;;;;;2.80;2.00;;;;;;;;;;4333333;33;20678;-85
2022/10/07 07:53:11;;;;;;;5.10;2.03;;;;;;;;;;4333620;33;20588;-85
2022/10/07 07:55:38;;;;;;;3.00;1.77;;;;;;;;;;4334479;33;20573;-84
2022/10/07 07:58:07;;;;;;;3.03;1.83;;;;;;;;;;4336403;33;20235;-87
2022/10/07 08:00:35;;;;;;;9.37;2.30;;;;;;;;;;4341634;33;20207;-75
2022/10/07 08:03:03;;;;;;;4.03;1.93;;;;;;;;;;4340749;33;20271;-89
2022/10/07 08:05:35;;;;;;;2.90;1.85;;;;;;;;;;4340656;33;20624;-78
2022/10/07 08:08:02;;;;;;;3.28;1.42;;;;;;;;;;4338492;33;20538;-75
2022/10/07 08:10:30;;;;;;;2.83;2.00;;;;;;;;;;4339679;33;20283;-89
2022/10/07 08:12:57;;;;;;;3.07;2.10;;;;;;;;;;4338392;33;20645;-76
2022/10/07 08:15:25;;;;;;;4.70;2.40;;;;;;;;;;4338899;33;20219;-89
2022/10/07 08:17:53;;;;;;;5.18;2.55;;;;;;;;;;4338624;33;20235;-90
2022/10/07 08:20:20;;;;;;;7.15;2.20;;;;;;;;;;4334657;33;20569;-87
2022/10/07 08:22:50;;;;;;;7.20;3.15;;;;;;;;;;4333849;33;20666;-85
2022/10/07 08:25:17;;;;;;;4.20;2.63;;;;;;;;;;4333527;33;20613;-77
2022/10/07 08:27:45;;;;;;;3.22;1.92;;;;;;;;;;4334966;33;20662;-79
2022/10/07 08:30:13;;;;;;;3.28;2.10;;;;;;;;;;4333010;33;20518;-86
2022/10/07 08:32:41;;;;;;;3.55;2.17;;;;;;;;;;4332962;33;20600;-79
2022/10/07 08:35:09;;;;;;;4.95;2.42;;;;;;;;;;4332941;33;20530;-79
2022/10/07 08:37:36;;;;;;;10.65;2.72;;;;;;;;;;4332566;33;20557;-80
2022/10/07 08:40:06;;;;;;;2.87;1.85;;;;;;;;;;4333404;33;20694;-82
2022/10/07 08:42:37;;;;;;;12.35;3.00;;;;;;;;;;4333003;33;20756;-80
2022/10/07 08:45:07;;;;;;;6.20;1.95;;;;;;;;;;4333045;33;20556;-86
2022/10/07 08:47:38;;;;;;;5.43;2.37;;;;;;;;;;4332627;33;20653;-83
2022/10/07 08:50:12;;;;;;;10.85;2.55;;;;;;;;;;4333096;33;20274;-82
2022/10/07 08:52:49;;;;;;;11.95;2.20;;;;;;;;;;4332306;33;20298;-85
2022/10/07 08:55:24;;;;;;;12.18;3.75;;;;;;;;;;4333007;33;20622;-86
2022/10/07 08:58:13;;;;;;;6.97;2.35;;;;;;;;;;4332289;33;20545;-85
2022/10/07 09:00:48;;;;;;;2.65;1.80;;;;;;;;;;4332278;33;20542;-85
2022/10/07 09:03:25;;;;;;;4.93;2.10;;;;;;;;;;4332895;33;20634;-85
2022/10/07 09:05:54;;;;;;;5.78;1.80;;;;;;;;;;4332113;33;20556;-86
2022/10/07 09:08:27;;;;;;;6.70;2.28;;;;;;;;;;4331946;33;20636;-86
2022/10/07 09:11:14;;;;;;;7.18;2.35;;;;;;;;;;4332559;33;20564;-87
2022/10/07 09:13:46;;;;;;;5.22;1.87;;;;;;;;;;4332145;33;20261;-84
2022/10/07 09:16:18;;;;;;;6.32;2.08;;;;;;;;;;4332323;33;20752;-84
2022/10/07 09:18:52;;;;;;;3.25;1.73;;;;;;;;;;4332083;33;20592;-85
2022/10/07 09:21:22;;;;;;;5.25;2.35;;;;;;;;;;4331799;33;20255;-84
2022/10/07 09:23:55;;;;;;;3.15;2.22;;;;;;;;;;4331792;33;20578;-83
2022/10/07 09:26:27;;;;;;;6.30;2.20;;;;;;;;;;4332062;33;20611;-84
2022/10/07 09:28:54;;;;;;;3.85;2.10;;;;;;;;;;4332178;33;20732;-84
2022/10/07 09:31:23;;;;;;;5.03;2.60;;;;;;;;;;4332727;33;20344;-84
2022/10/07 09:33:52;;;;;;;2.60;1.65;;;;;;;;;;4331989;33;20565;-83
2022/10/07 09:36:20;;;;;;;10.50;3.12;;;;;;;;;;4331853;33;20541;-82
2022/10/07 09:38:51;;;;;;;9.00;2.15;;;;;;;;;;4331516;33;20576;-83
2022/10/07 09:44:42;;;;;;;2.22;1.90;;;;;;;;;;4332439;33;20560;-83
2022/10/07 09:47:20;;;;;;;2.20;1.60;;;;;;;;;;4331797;33;20587;-83
2022/10/07 09:49:51;;;;;;;7.60;1.80;;;;;;;;;;4332362;33;20555;-83
2022/10/07 09:55:42;;;;;;;5.75;1.42;;;;;;;;;;4331992;33;20618;-80
2022/10/07 09:58:18;;;;;;;2.45;1.48;;;;;;;;;;4331553;33;20712;-82
2022/10/07 10:00:49;;;;;;;2.22;1.45;;;;;;;;;;4331760;33;20585;-83
2022/10/07 10:03:17;;;;;;;4.10;1.50;;;;;;;;;;4331690;33;20573;-82
2022/10/07 10:05:53;;;;;;;2.25;1.50;;;;;;;;;;4331760;33;20661;-83
2022/10/07 10:08:28;;;;;;;5.72;1.67;;;;;;;;;;4331819;33;20637;-83
2022/10/07 10:10:57;;;;;;;9.38;1.37;;;;;;;;;;4331534;33;20625;-83
2022/10/07 10:13:27;;;;;;;6.00;1.45;;;;;;;;;;4331632;33;20724;-80
2022/10/07 10:15:57;;;;;;;18.33;1.40;;;;;;;;;;4331669;33;20725;-83
2022/10/07 10:18:44;;;;;;;5.72;1.62;;;;;;;;;;4331469;33;20738;-81
2022/10/07 10:21:19;;;;;;;3.78;1.67;;;;;;;;;;4331900;33;20548;-80
2022/10/07 10:23:49;;;;;;;5.20;1.62;;;;;;;;;;4331577;33;20570;-83
2022/10/07 10:26:29;;;;;;;6.85;2.28;;;;;;;;;;4333254;33;20551;-80
2022/10/07 10:29:08;;;;;;;9.40;1.60;;;;;;;;;;4333142;33;20583;-83
2022/10/07 10:31:53;;;;;;;3.90;1.30;;;;;;;;;;4332366;33;20689;-82
2022/10/07 10:34:34;;;;;;;3.60;1.55;;;;;;;;;;4332362;33;20597;-81
2022/10/07 10:37:08;;;;;;;5.30;1.35;;;;;;;;;;4332276;33;20728;-83
2022/10/07 10:39:51;;;;;;;3.33;1.42;;;;;;;;;;4331571;33;20599;-81
2022/10/07 10:42:24;;;;;;;6.65;1.42;;;;;;;;;;4331282;33;20572;-83
2022/10/07 10:45:11;;;;;;;6.45;2.20;;;;;;;;;;4331992;33;20623;-83
2022/10/07 10:48:04;;;;;;;5.12;2.00;;;;;;;;;;4318709;33;20748;-82
2022/10/07 10:50:40;;;;;;;9.60;2.10;;;;;;;;;;4331902;33;20549;-83
2022/10/07 10:53:24;;;;;;;4.45;2.03;;;;;;;;;;4332397;33;20552;-83
2022/10/07 10:56:20;;;;;;;7.80;2.10;;;;;;;;;;4332330;33;20565;-86
2022/10/07 10:59:00;;;;;;;8.15;2.33;;;;;;;;;;4331575;33;20301;-81
2022/10/07 11:01:35;;;;;;;12.45;2.72;;;;;;;;;;4331730;33;20221;-84
2022/10/07 11:04:29;;;;;;;7.45;2.37;;;;;;;;;;4331445;33;20529;-77
2022/10/07 11:07:00;;;;;;;9.65;4.30;;;;;;;;;;4331554;33;20617;-84
2022/10/07 11:09:37;;;;;;;8.55;3.65;;;;;;;;;;4331725;33;20550;-84
2022/10/07 11:12:09;;;;;;;8.60;4.75;;;;;;;;;;4331366;33;20522;-82
2022/10/07 11:14:44;;;;;;;9.98;4.18;;;;;;;;;;4331830;33;20509;-81
2022/10/07 11:17:14;;;;;;;9.50;3.62;;;;;;;;;;4331479;33;20548;-85
2022/10/07 11:19:51;;;;;;;5.55;2.33;;;;;;;;;;4331813;33;20200;-81
2022/10/07 11:22:31;;;;;;;9.43;3.97;;;;;;;;;;4331441;33;20524;-84
2022/10/07 11:25:08;;;;;;;7.45;2.05;;;;;;;;;;4331271;33;20600;-84
2022/10/07 11:27:36;;;;;;;13.23;2.42;;;;;;;;;;4331196;33;20579;-84
2022/10/07 11:30:06;;;;;;;8.55;2.05;;;;;;;;;;4331454;33;20556;-83
2022/10/07 11:32:44;;;;;;;6.22;2.55;;;;;;;;;;4331459;33;20651;-84
2022/10/07 11:35:24;;;;;;;2.58;1.52;;;;;;;;;;4331740;33;20238;-85
2022/10/07 11:37:58;;;;;;;2.92;1.73;;;;;;;;;;4331442;33;20660;-84
2022/10/07 11:40:29;;;;;;;7.78;1.98;;;;;;;;;;4331272;33;20358;-83
2022/10/07 11:43:02;;;;;;;4.45;1.83;;;;;;;;;;4332626;33;20571;-83
2022/10/07 11:45:37;;;;;;;7.07;2.50;;;;;;;;;;4333967;33;20267;-84
2022/10/07 11:48:08;;;;;;;8.15;1.83;;;;;;;;;;4334218;33;20644;-83
2022/10/07 11:50:41;;;;;;;8.05;1.90;;;;;;;;;;4333812;33;20557;-84
2022/10/07 11:53:11;;;;;;;9.23;2.00;;;;;;;;;;4333640;33;20591;-84
2022/10/07 11:55:44;;;;;;;6.53;2.00;;;;;;;;;;4333840;33;20365;-84
2022/10/07 11:58:24;;;;;;;10.52;2.28;;;;;;;;;;4333730;33;20584;-84
2022/10/07 12:00:51;;;;;;;6.62;1.90;;;;;;;;;;4333668;33;20544;-84
2022/10/07 12:03:46;;;;;;;5.85;2.35;;;;;;;;;;4333419;33;20337;-83
2022/10/07 12:06:15;;;;;;;4.72;1.98;;;;;;;;;;4333431;33;20586;-84
2022/10/07 12:08:43;;;;;;;4.95;2.00;;;;;;;;;;4333467;33;20577;-84
2022/10/07 12:11:40;;;;;;;8.43;1.70;;;;;;;;;;4333619;33;20556;-84
2022/10/07 12:14:40;;;;;;;3.30;1.50;;;;;;;;;;4333622;33;20556;-84
2022/10/07 12:17:30;;;;;;;2.75;1.75;;;;;;;;;;4333430;33;20642;-84
2022/10/07 12:20:33;;;;;;;3.55;1.75;;;;;;;;;;4328440;33;20645;-84
2022/10/07 12:23:37;;;;;;;6.75;2.90;;;;;;;;;;4306976;33;20596;-84
2022/10/07 12:26:08;;;;;;;3.70;1.75;;;;;;;;;;4333390;33;20536;-84
2022/10/07 12:28:47;;;;;;;3.55;1.87;;;;;;;;;;4333228;33;20640;-84
2022/10/07 12:31:45;;;;;;;3.92;2.00;;;;;;;;;;4333150;33;20510;-82
2022/10/07 12:34:23;;;;;;;5.12;1.95;;;;;;;;;;4333613;33;20345;-84
2022/10/07 12:36:50;;;;;;;5.85;1.87;;;;;;;;;;4333356;33;20525;-85
2022/10/07 12:39:35;;;;;;;8.18;1.40;;;;;;;;;;4333439;33;20619;-83
2022/10/07 12:42:07;;;;;;;12.68;1.95;;;;;;;;;;4333157;33;20643;-85
2022/10/07 12:44:40;;;;;;;8.40;2.00;;;;;;;;;;4333642;33;20617;-81
2022/10/07 12:47:15;;;;;;;6.32;1.62;;;;;;;;;;4333040;33;20625;-84
2022/10/07 12:49:47;;;;;;;9.15;2.03;;;;;;;;;;4332897;33;20282;-85
2022/10/07 12:52:18;;;;;;;4.22;2.03;;;;;;;;;;4333249;33;20302;-85
2022/10/07 12:54:52;;;;;;;2.78;1.62;;;;;;;;;;4332660;33;20686;-84
2022/10/07 12:57:23;;;;;;;6.97;1.80;;;;;;;;;;4332893;33;20251;-84
2022/10/07 13:00:00;;;;;;;13.62;1.48;;;;;;;;;;4333117;33;20607;-84
2022/10/07 13:03:07;;;;;;;5.20;1.85;;;;;;;;;;4332678;33;20556;-84
2022/10/07 13:06:10;;;;;;;8.38;1.62;;;;;;;;;;4332238;33;20654;-84
2022/10/07 13:09:14;;;;;;;2.20;1.27;;;;;;;;;;4332443;33;20559;-85
2022/10/07 13:12:12;;;;;;;3.22;1.30;;;;;;;;;;4332635;33;20271;-81
2022/10/07 13:14:50;;;;;;;3.05;1.52;;;;;;;;;;4333230;33;20642;-84
2022/10/07 13:17:31;;;;;;;4.93;1.20;;;;;;;;;;4332432;33;20275;-81
2022/10/07 13:20:09;;;;;;;2.78;1.37;;;;;;;;;;4332610;33;20540;-84
2022/10/07 13:22:36;;;;;;;3.60;1.67;;;;;;;;;;4332688;33;20409;-81
2022/10/07 13:25:07;;;;;;;5.25;1.70;;;;;;;;;;4332507;33;20633;-82
2022/10/07 13:27:40;;;;;;;3.95;1.30;;;;;;;;;;4332302;33;20553;-83
2022/10/07 13:30:31;;;;;;;7.18;1.65;;;;;;;;;;4332449;33;20556;-83
2022/10/07 13:33:13;;;;;;;4.47;1.70;;;;;;;;;;4332446;33;20564;-85
2022/10/07 13:35:40;;;;;;;4.05;2.03;;;;;;;;;;4332605;33;20574;-83
2022/10/07 13:38:21;;;;;;;11.88;2.28;;;;;;;;;;4332214;33;20558;-83
2022/10/07 13:41:01;;;;;;;7.50;1.60;;;;;;;;;;4332989;33;20621;-83
2022/10/07 13:43:31;;;;;;;6.87;1.65;;;;;;;;;;4332348;33;20694;-83
2022/10/07 13:46:00;;;;;;;3.25;1.70;;;;;;;;;;4332677;33;20615;-86
2022/10/07 13:48:33;;;;;;;4.65;1.50;;;;;;;;;;4331674;33;20582;-83
2022/10/07 13:51:02;;;;;;;4.05;1.83;;;;;;;;;;4332495;33;20541;-84
2022/10/07 13:53:32;;;;;;;2.80;1.40;;;;;;;;;;4332179;33;20294;-83
2022/10/07 13:56:15;;;;;;;4.20;1.55;;;;;;;;;;4332043;33;20290;-84
2022/10/07 13:58:45;;;;;;;5.30;1.87;;;;;;;;;;4331939;33;20656;-84
2022/10/07 14:01:13;;;;;;;8.02;2.22;;;;;;;;;;4332233;33;20602;-85
2022/10/07 14:04:16;;;;;;;3.03;1.55;;;;;;;;;;4332311;33;20675;-84
2022/10/07 14:06:53;;;;;;;2.22;1.65;;;;;;;;;;4328720;33;20652;-84
2022/10/07 14:09:25;;;;;;;9.88;1.67;;;;;;;;;;4331986;33;20518;-82
2022/10/07 14:11:58;;;;;;;8.43;2.47;;;;;;;;;;4332034;33;20616;-84
2022/10/07 14:14:35;;;;;;;4.68;2.00;;;;;;;;;;4332130;33;20540;-85
2022/10/07 14:17:09;;;;;;;11.85;2.67;;;;;;;;;;4331798;33;20660;-84
2022/10/07 14:19:38;;;;;;;5.07;2.60;;;;;;;;;;4332046;33;20715;-81
2022/10/07 14:22:18;;;;;;;4.78;1.98;;;;;;;;;;4331755;33;20580;-84
2022/10/07 14:24:53;;;;;;;1.62;1.23;;;;;;;;;;4331931;33;20600;-81
2022/10/07 14:28:03;;;;;;;15.00;2.70;;;;;;;;;;4331599;33;20650;-83
2022/10/07 14:36:14;;;;;;;4.22;2.80;;;;;;;;;;4331976;33;20664;-80
2022/10/07 14:38:42;;;;;;;5.72;1.87;;;;;;;;;;4331681;33;20649;-82
2022/10/07 14:41:10;;;;;;;6.70;1.92;;;;;;;;;;4331825;33;20544;-82
2022/10/07 14:43:40;;;;;;;6.72;1.80;;;;;;;;;;4331688;33;20591;-82
2022/10/07 14:46:17;;;;;;;2.80;1.65;;;;;;;;;;4331779;33;20717;-79
2022/10/07 14:48:45;;;;;;;3.87;1.77;;;;;;;;;;4331530;33;20572;-82
2022/10/07 14:51:14;;;;;;;6.90;1.73;;;;;;;;;;4331770;33;20537;-82
2022/10/07 14:53:42;;;;;;;11.12;2.03;;;;;;;;;;4331708;33;20654;-83
2022/10/07 14:56:14;;;;;;;6.00;2.53;;;;;;;;;;4331515;33;20548;-82
2022/10/07 14:58:42;;;;;;;6.90;1.50;;;;;;;;;;4331539;33;20534;-80
2022/10/07 15:01:11;;;;;;;5.45;2.08;;;;;;;;;;4331860;33;20636;-82
2022/10/07 15:03:38;;;;;;;2.12;1.60;;;;;;;;;;4331500;33;20642;-82
2022/10/07 15:06:06;;;;;;;4.20;1.92;;;;;;;;;;4331641;33;20578;-81
2022/10/07 15:08:33;;;;;;;7.90;2.10;;;;;;;;;;4331509;33;20625;-87
2022/10/07 15:11:01;;;;;;;2.83;1.67;;;;;;;;;;4331605;33;20532;-81
2022/10/07 15:13:28;;;;;;;8.55;2.10;;;;;;;;;;4331437;33;20664;-79
2022/10/07 15:15:56;;;;;;;3.97;2.17;;;;;;;;;;4331460;33;20586;-79
2022/10/07 15:18:25;;;;;;;4.03;2.08;;;;;;;;;;4333748;33;20576;-79
2022/10/07 15:20:56;;;;;;;2.90;2.00;;;;;;;;;;4334013;33;20600;-82
2022/10/07 15:23:24;;;;;;;10.40;2.70;;;;;;;;;;4334223;33;20640;-82
2022/10/07 15:25:52;;;;;;;7.15;2.17;;;;;;;;;;4334226;33;20619;-79
2022/10/07 15:28:20;;;;;;;5.82;2.90;;;;;;;;;;4334182;33;20567;-83